Royersford, PA (19468)

5:06 PM EDT on April 25, 2017 (GMT -0400)
Downtown Royersford | | Change Station

Elev 240 ft 40.18 °N, 75.54 °W | Updated 1 minute ago

Rain
Rain
57.0 °F
Feels Like 57.0 °F
N
2.7
Wind Variable Wind from South

Today
High -- | Low -- °F
--% Chance of Precip.
Yesterday
High -- | Low -- °F
Precip. -- in
Pressure 29.86 in
Visibility 3.0 miles
Clouds Overcast 1000 ft
Dew Point 56 °F
Humidity 96%
Rainfall 0.15 in
Snow Depth Not available.
6:09 AM 7:51 PM
Waning Crescent, 1% visible
SPECI KPTW 252030Z AUTO 07013G20KT 3SM -RA BR OVC010 13/12 A2986 RMK AO2 CIG 007V014 P0001 T01330122
Pressure 29.86 in
Visibility 3.0 miles
Clouds Overcast 1000 ft
Dew Point 56 °F
Humidity 96%
Rainfall 0.15 in
Snow Depth Not available.
6:09 AM 7:51 PM
Waning Crescent, 1% visible
SPECI KPTW 252030Z AUTO 07013G20KT 3SM -RA BR OVC010 13/12 A2986 RMK AO2 CIG 007V014 P0001 T01330122

Get Severe Weather Alerts

Thanks for signing up!

Be on the lookout for a verification email in your inbox.

You'll start receiving the daily forecast at 8 AM.

×

10-Day Weather Forecast

Almanac

Astronomy

Apr. 25, 2017 Rise Set
Actual Time
Civil Twilight
Nautical Twilight
Astronomical Twilight
Moon
Length of Visible Light
Length of Day
Tomorrow will be .
, % of the Moon is Illuminated

Today's Extremes

State Highs State Lows

Community

WunderPhotos

WunderBlog® & News

Nearby

Air Quality

  Air Quality AQ Index Pollutant
Not available.

Snow Depth

Station Depth Elevation

Earthquake Activity

City Distance Mag. Time & Date
Minimum magnitude displayed is 2.5.

Coastal Water Temperatures

Place Temperature

Stations

Nearby Weather Stations

Station Location Temp. Windchill Dew Point Humidity Wind Precip. Elev Updated Type
                   

Watches & Warnings

There are currently no watches in effect.